Facebook Twitter

Wetterstation Budapest/Lorinc

aktuelles Wetter
  Temperatur Wetter Niederschlag Luftdruck Wind
Do, 06:00 Uhr 21° - - 1012 hPa 5 km/h NO
Do, 05:00 Uhr 21° - - 1011.8 hPa 2 km/h N
Do, 04:00 Uhr 21° - - 1011.6 hPa 4 km/h N
Do, 03:00 Uhr 22° - - 1011.3 hPa 4 km/h NO
Do, 02:00 Uhr 22° - 0 mm 1011.6 hPa 0 km/h NO
Do, 01:00 Uhr 23° - - 1011.4 hPa 6 km/h NO
Do, 00:00 Uhr 22° - - 1010.8 hPa 2 km/h W
Mi, 23:00 Uhr 24° - - 1010.6 hPa 5 km/h O
Mi, 22:00 Uhr 26° - - 1010.7 hPa 1 km/h NW
Mi, 21:00 Uhr 28° - - 1010.2 hPa 3 km/h NW
Mi, 20:00 Uhr 31° - 0 mm 1009.7 hPa 3 km/h N
Mi, 19:00 Uhr 33° - - 1009.1 hPa 8 km/h W
Mi, 18:00 Uhr 34° - - 1009.2 hPa 10 km/h W

Böen 25 km/h
Mi, 17:00 Uhr 34° - - 1009.2 hPa 10 km/h W
Mi, 16:00 Uhr 34° - - 1009.3 hPa 9 km/h NW
Mi, 15:00 Uhr 34° - - 1009.5 hPa 9 km/h W

Böen 25 km/h
Mi, 14:00 Uhr 33° - 0 mm 1010 hPa 5 km/h W
Mi, 13:00 Uhr 33° - - 1010.4 hPa 11 km/h W
Mi, 12:00 Uhr 32° - - 1010.5 hPa 7 km/h N
Mi, 11:00 Uhr 30° - - 1010.7 hPa 4 km/h NW

Alle Zeitangaben MESZ